Time;durP1;ratioP1;P1;durP2;ratioP2;P2;SDS_P1;SDS_P2;PMS_P1;PMS_P2;Temp;Humidity;BMP_temperature;BMP_pressure;BME280_temperature;BME280_humidity;BME280_pressure;Samples;Min_cycle;Max_cycle;Signal;HPM_P1;HPM_P2
2023/09/09 00:00:59;;;;;;;9.50;8.57;;;;;;;23.28;57.76;98769.06;7000793;28;20243;-90
2023/09/09 00:04:21;;;;;;;9.40;8.50;;;;;;;23.52;57.65;98792.00;7004170;28;20209;-90
2023/09/09 00:07:43;;;;;;;9.63;8.07;;;;;;;23.54;57.66;98790.59;6999638;28;20209;-90
2023/09/09 00:11:05;;;;;;;9.07;7.70;;;;;;;23.37;57.02;98765.41;7000238;28;20240;-90
2023/09/09 00:14:26;;;;;;;9.47;8.50;;;;;;;22.93;58.53;98755.56;6999204;28;20307;-90
2023/09/09 00:17:49;;;;;;;9.60;8.77;;;;;;;23.14;58.86;98779.88;7010223;28;20285;-90
2023/09/09 00:21:10;;;;;;;9.50;8.60;;;;;;;23.19;58.31;98784.56;7011764;28;20236;-90
2023/09/09 00:24:32;;;;;;;9.53;8.60;;;;;;;23.23;58.45;98774.63;6998639;28;20233;-90
2023/09/09 00:27:54;;;;;;;9.80;8.53;;;;;;;23.13;58.89;98774.69;6998515;28;20344;-90
2023/09/09 00:31:16;;;;;;;12.87;8.90;;;;;;;22.58;58.94;98698.91;6998421;28;20364;-90
2023/09/09 00:34:39;;;;;;;11.57;9.10;;;;;;;22.29;58.96;98672.38;6999801;28;20219;-90
2023/09/09 00:38:01;;;;;;;9.77;8.73;;;;;;;22.88;59.03;98755.59;6999564;28;20336;-90
2023/09/09 00:41:23;;;;;;;12.83;9.53;;;;;;;23.10;58.52;98773.31;6997552;28;20207;-90
2023/09/09 00:44:45;;;;;;;12.60;9.93;;;;;;;22.44;58.42;98695.16;6998484;28;20297;-90
2023/09/09 00:48:15;;;;;;;9.77;8.80;;;;;;;23.13;58.46;98774.69;6993299;28;20192;-91
2023/09/09 00:51:44;;;;;;;10.03;9.03;;;;;;;22.56;58.63;98701.13;6970626;28;20535;-89
2023/09/09 00:55:06;;;;;;;12.20;9.17;;;;;;;22.78;58.97;98785.91;6970446;28;20242;-90
2023/09/09 00:58:30;;;;;;;10.97;9.90;;;;;;;22.66;59.46;98790.94;6969781;28;20220;-90
2023/09/09 01:01:53;;;;;;;9.80;8.63;;;;;;;22.70;59.29;98787.34;6970439;28;20198;-91
2023/09/09 01:05:15;;;;;;;10.73;8.67;;;;;;;22.72;59.06;98763.13;6970059;28;20226;-90
2023/09/09 01:08:38;;;;;;;10.03;9.03;;;;;;;22.98;58.36;98789.38;6969568;28;20228;-90
2023/09/09 01:12:00;;;;;;;9.50;8.63;;;;;;;22.79;58.68;98796.66;7020386;28;20670;-90
2023/09/09 01:15:22;;;;;;;10.27;9.27;;;;;;;22.04;59.26;98686.25;7025326;28;20228;-90
2023/09/09 01:18:43;;;;;;;11.00;9.77;;;;;;;22.58;59.43;98797.00;7025809;28;20209;-90
2023/09/09 01:22:11;;;;;;;12.43;8.80;;;;;;;22.77;58.94;98800.78;7025757;28;20259;-90
2023/09/09 01:25:34;;;;;;;12.50;9.63;;;;;;;22.68;58.94;98786.81;7025064;28;20352;-90
2023/09/09 01:28:55;;;;;;;11.53;9.07;;;;;;;22.43;58.69;98781.41;7026018;28;20227;-90
2023/09/09 01:32:16;;;;;;;10.03;9.03;;;;;;;22.51;59.28;98797.34;7025311;28;20299;-90
2023/09/09 01:35:38;;;;;;;9.53;8.53;;;;;;;22.82;58.79;98801.56;7024627;28;20317;-90
2023/09/09 01:38:59;;;;;;;11.03;8.77;;;;;;;22.67;58.61;98796.13;7035820;28;20258;-89
2023/09/09 01:42:22;;;;;;;9.57;8.67;;;;;;;22.52;59.14;98795.38;7032068;28;20206;-88
2023/09/09 01:45:44;;;;;;;10.70;9.50;;;;;;;22.20;59.86;98792.19;7018231;28;20233;-90
2023/09/09 01:49:05;;;;;;;11.57;9.93;;;;;;;22.22;60.05;98807.31;6997414;28;20767;-90
2023/09/09 01:52:27;;;;;;;10.20;9.10;;;;;;;22.35;59.75;98809.44;6999801;28;20288;-90
2023/09/09 01:55:48;;;;;;;11.37;9.30;;;;;;;22.29;59.50;98807.00;7002284;28;20812;-90
2023/09/09 01:59:11;;;;;;;10.53;9.60;;;;;;;22.33;59.59;98802.59;7002046;28;20277;-90
2023/09/09 02:02:33;;;;;;;9.70;8.80;;;;;;;22.31;60.22;98793.81;7002195;28;20211;-90
2023/09/09 02:05:54;;;;;;;12.03;9.83;;;;;;;22.32;59.39;98799.03;7001552;28;20365;-90
2023/09/09 02:09:16;;;;;;;10.27;9.33;;;;;;;22.24;60.15;98802.34;7001808;28;20231;-90
2023/09/09 02:12:38;;;;;;;11.00;10.00;;;;;;;21.71;59.62;98708.91;7002265;28;20208;-90
2023/09/09 02:16:05;;;;;;;10.70;9.70;;;;;;;22.26;59.45;98780.94;7001722;28;20222;-90
2023/09/09 02:19:27;;;;;;;10.50;9.40;;;;;;;21.79;59.69;98711.91;7016943;28;20204;-90
2023/09/09 02:22:48;;;;;;;10.73;9.63;;;;;;;21.75;59.64;98705.31;7001362;28;20205;-89
2023/09/09 02:26:10;;;;;;;10.07;8.90;;;;;;;22.46;58.72;98802.84;7001074;28;20264;-89
2023/09/09 02:29:32;;;;;;;9.63;8.63;;;;;;;22.29;58.88;98791.34;7001034;28;20272;-89
2023/09/09 02:32:55;;;;;;;10.13;9.23;;;;;;;22.22;59.02;98755.13;7001490;28;20244;-89
2023/09/09 02:36:17;;;;;;;11.13;10.00;;;;;;;21.88;59.88;98787.06;7000738;28;20314;-89
2023/09/09 02:39:38;;;;;;;11.77;10.57;;;;;;;21.42;62.09;98788.19;7000818;28;20229;-89
2023/09/09 02:43:00;;;;;;;11.13;10.13;;;;;;;21.81;61.20;98792.03;7000566;28;20248;-89
2023/09/09 02:46:22;;;;;;;11.23;10.03;;;;;;;22.01;60.34;98783.75;7000350;28;20313;-89
2023/09/09 02:50:16;;;;;;;12.17;10.60;;;;;;;21.64;60.29;98798.88;6995345;28;20564;-89
2023/09/09 02:53:39;;;;;;;12.57;11.37;;;;;;;21.60;60.86;98789.56;7000766;28;20262;-89
2023/09/09 02:57:01;;;;;;;11.80;10.67;;;;;;;21.66;61.31;98782.97;7000057;28;20260;-89
2023/09/09 03:00:22;;;;;;;10.63;9.63;;;;;;;21.80;60.47;98767.59;7001083;28;20223;-89
2023/09/09 03:03:44;;;;;;;11.97;9.60;;;;;;;21.64;60.54;98783.25;6999892;28;20206;-89
2023/09/09 03:07:05;;;;;;;11.37;10.27;;;;;;;21.71;60.45;98785.75;7000320;28;20640;-89
2023/09/09 03:10:28;;;;;;;11.60;10.40;;;;;;;21.31;60.47;98715.22;7000712;28;20264;-89
2023/09/09 03:13:50;;;;;;;10.37;9.43;;;;;;;22.12;59.88;98785.34;7000273;28;20238;-89
2023/09/09 03:17:11;;;;;;;12.07;10.87;;;;;;;21.80;60.66;98767.59;7000210;28;20568;-89
2023/09/09 03:20:33;;;;;;;13.07;10.90;;;;;;;21.46;61.33;98789.31;6999863;28;20352;-89
2023/09/09 03:23:54;;;;;;;11.90;10.80;;;;;;;21.72;62.31;98781.91;7000007;28;20377;-89
2023/09/09 03:27:17;;;;;;;11.83;10.63;;;;;;;21.95;60.88;98786.78;6999816;28;20236;-89
2023/09/09 03:30:55;;;;;;;11.80;10.57;;;;;;;21.91;60.46;98788.44;6999916;28;20314;-89
2023/09/09 03:34:25;;;;;;;13.97;10.90;;;;;;;20.89;62.06;98729.50;6999593;28;20202;-89
2023/09/09 03:37:47;;;;;;;11.73;10.63;;;;;;;21.63;62.31;98786.25;6999385;28;20289;-89
2023/09/09 03:41:08;;;;;;;11.43;10.33;;;;;;;21.95;60.73;98790.34;6999428;28;20249;-88
2023/09/09 03:44:31;;;;;;;11.30;10.30;;;;;;;22.06;60.60;98780.97;6999496;28;20315;-89
2023/09/09 03:47:53;;;;;;;11.27;10.27;;;;;;;22.06;60.54;98788.41;6999118;28;20210;-89
2023/09/09 03:51:14;;;;;;;11.67;10.47;;;;;;;21.74;61.18;98785.19;6999714;28;20234;-89
2023/09/09 03:54:36;;;;;;;12.33;10.07;;;;;;;21.78;61.36;98783.53;6998847;28;20314;-89
2023/09/09 03:57:57;;;;;;;11.23;10.13;;;;;;;22.05;60.20;98790.31;6998758;28;20355;-89
2023/09/09 04:01:20;;;;;;;14.00;10.97;;;;;;;21.98;60.44;98799.94;6999183;28;20290;-89
2023/09/09 04:04:42;;;;;;;11.43;10.43;;;;;;;22.18;59.85;98791.66;6999147;28;20279;-89
2023/09/09 04:08:08;;;;;;;11.07;10.07;;;;;;;22.21;59.43;98791.09;6998468;28;20799;-89
2023/09/09 04:11:30;;;;;;;13.10;10.83;;;;;;;22.00;59.71;98792.25;7002150;28;20249;-89
2023/09/09 04:14:51;;;;;;;15.03;11.27;;;;;;;21.79;60.65;98797.00;6997840;28;20228;-89
2023/09/09 04:18:14;;;;;;;11.70;10.50;;;;;;;21.80;60.26;98782.16;6988396;28;20291;-89
2023/09/09 04:21:36;;;;;;;12.07;10.23;;;;;;;22.13;59.78;98803.47;6982012;28;20263;-89
2023/09/09 04:24:57;;;;;;;14.07;9.80;;;;;;;22.00;59.76;98795.00;6998494;28;20229;-89
2023/09/09 04:28:19;;;;;;;13.20;11.30;;;;;;;21.49;60.46;98787.94;6997958;28;20203;-89
2023/09/09 04:31:40;;;;;;;11.97;10.80;;;;;;;21.22;62.00;98794.78;6998375;28;20231;-89
2023/09/09 04:35:04;;;;;;;12.40;11.10;;;;;;;21.40;61.89;98784.91;6998005;28;20314;-89
2023/09/09 04:38:25;;;;;;;12.57;11.37;;;;;;;21.76;61.45;98794.78;6997758;28;20351;-89
2023/09/09 04:41:47;;;;;;;13.43;12.03;;;;;;;21.49;60.98;98752.25;6998211;28;20213;-89
2023/09/09 04:45:09;;;;;;;12.67;11.57;;;;;;;21.68;62.00;98792.63;6997715;28;20229;-89
2023/09/09 04:48:32;;;;;;;13.37;11.57;;;;;;;21.80;61.43;98792.31;6998287;28;20312;-89
2023/09/09 04:51:57;;;;;;;21.57;11.77;;;;;;;21.87;61.62;98796.41;6975948;28;20218;-89
2023/09/09 04:55:18;;;;;;;13.57;11.30;;;;;;;21.83;61.69;98791.75;6970393;28;20702;-89
2023/09/09 04:58:40;;;;;;;13.10;11.20;;;;;;;21.77;61.63;98781.91;6969551;28;20303;-89
2023/09/09 05:02:01;;;;;;;15.37;12.73;;;;;;;22.05;61.07;98794.97;6969990;28;20205;-89
2023/09/09 05:05:24;;;;;;;17.03;12.13;;;;;;;21.95;61.70;98793.09;6970147;28;20269;-88
2023/09/09 05:08:47;;;;;;;13.00;11.70;;;;;;;21.54;61.24;98722.88;6969729;28;20298;-89
2023/09/09 05:12:09;;;;;;;13.97;12.20;;;;;;;21.56;62.46;98756.38;6969952;28;20748;-88
2023/09/09 05:15:30;;;;;;;13.20;11.90;;;;;;;21.66;61.14;98739.88;6969814;28;20317;-89
2023/09/09 05:18:52;;;;;;;14.47;12.03;;;;;;;21.70;61.73;98795.91;6969928;28;20286;-89
2023/09/09 05:22:13;;;;;;;13.70;12.17;;;;;;;21.99;61.10;98779.63;6969741;28;20236;-89
2023/09/09 05:25:36;;;;;;;13.03;11.73;;;;;;;22.04;60.60;98809.81;6969623;28;20705;-89
2023/09/09 05:29:00;;;;;;;12.70;11.50;;;;;;;22.17;60.63;98811.97;6982928;28;20252;-89
2023/09/09 05:32:24;;;;;;;13.10;11.90;;;;;;;22.06;60.77;98802.94;7003211;28;20259;-89
2023/09/09 05:35:45;;;;;;;11.97;10.87;;;;;;;22.16;60.98;98807.59;7003335;28;20579;-90
2023/09/09 05:39:17;;;;;;;12.33;11.13;;;;;;;21.88;61.02;98764.28;7002797;28;20218;-87
2023/09/09 05:42:49;;;;;;;13.60;11.63;;;;;;;22.05;60.41;98790.31;6998236;28;20198;-88
2023/09/09 05:46:10;;;;;;;13.03;11.83;;;;;;;22.32;60.24;98837.50;6992819;28;20254;-91
2023/09/09 05:49:32;;;;;;;13.23;11.00;;;;;;;21.79;61.08;98788.75;7002236;28;20234;-90
2023/09/09 05:52:53;;;;;;;12.10;11.00;;;;;;;21.85;62.17;98826.06;7010210;28;20185;-91
2023/09/09 05:56:15;;;;;;;11.60;10.60;;;;;;;22.83;59.85;98833.44;7035679;28;20232;-90
2023/09/09 05:59:38;;;;;;;11.17;10.03;;;;;;;23.34;58.24;98820.22;7036660;28;20206;-89
2023/09/09 06:02:59;;;;;;;11.13;10.00;;;;;;;23.16;58.33;98796.97;7009430;28;20206;-89
2023/09/09 06:06:21;;;;;;;12.30;10.37;;;;;;;23.51;57.72;98779.34;7003142;28;20255;-89
2023/09/09 06:09:43;;;;;;;13.13;10.70;;;;;;;24.59;55.42;98828.09;7002662;28;20314;-89
2023/09/09 06:13:04;;;;;;;12.03;10.90;;;;;;;25.03;54.20;98823.09;7001942;28;20285;-88
2023/09/09 06:16:27;;;;;;;12.97;10.70;;;;;;;25.27;54.07;98826.63;7002591;28;20375;-86
2023/09/09 06:19:48;;;;;;;12.10;10.87;;;;;;;25.42;54.41;98820.84;7000418;28;20281;-87
2023/09/09 06:23:10;;;;;;;10.83;9.83;;;;;;;25.90;53.28;98825.03;7000863;28;20259;-86
2023/09/09 06:26:33;;;;;;;12.40;10.10;;;;;;;26.32;52.00;98822.00;6998500;28;20583;-85
2023/09/09 06:29:55;;;;;;;10.70;9.80;;;;;;;26.38;52.20;98828.28;6999505;28;20359;-87
2023/09/09 06:33:18;;;;;;;11.27;10.17;;;;;;;26.76;51.50;98818.66;7001443;28;20467;-85
2023/09/09 06:36:39;;;;;;;10.80;9.73;;;;;;;26.68;51.11;98822.16;7025772;28;20320;-86
2023/09/09 06:40:01;;;;;;;11.03;9.87;;;;;;;27.30;49.83;98826.88;7029052;28;20614;-88
2023/09/09 06:43:23;;;;;;;10.67;9.73;;;;;;;27.57;49.04;98827.59;7031064;28;20237;-86
2023/09/09 06:46:44;;;;;;;10.60;9.67;;;;;;;27.21;50.06;98835.13;7029644;28;20229;-85
2023/09/09 06:50:09;;;;;;;9.63;8.67;;;;;;;27.79;49.34;98835.13;7012142;28;20311;-85
2023/09/09 06:53:30;;;;;;;8.87;8.07;;;;;;;28.04;48.35;98842.75;6974170;28;20285;-82
2023/09/09 06:56:52;;;;;;;9.17;8.37;;;;;;;27.88;48.61;98811.03;6974004;28;20262;-89
2023/09/09 07:00:14;;;;;;;9.20;7.97;;;;;;;28.73;47.39;98847.53;6973642;28;20248;-86
2023/09/09 07:03:35;;;;;;;9.07;8.27;;;;;;;29.15;46.63;98838.50;6973164;28;20242;-86
2023/09/09 07:06:58;;;;;;;9.80;8.20;;;;;;;29.12;45.62;98848.31;6972097;28;20308;-86
2023/09/09 07:10:20;;;;;;;10.60;8.30;;;;;;;29.21;46.21;98817.75;6996568;28;20309;-88
2023/09/09 07:13:41;;;;;;;8.57;7.87;;;;;;;29.55;44.67;98849.16;7000896;28;20673;-89
2023/09/09 07:17:03;;;;;;;8.37;7.50;;;;;;;29.99;44.30;98856.31;7000641;28;20224;-88
2023/09/09 07:20:25;;;;;;;8.53;7.80;;;;;;;30.24;44.81;98838.81;7000663;28;20257;-88
2023/09/09 07:23:47;;;;;;;9.47;8.37;;;;;;;30.72;43.33;98856.00;7000589;28;20242;-88
2023/09/09 07:27:09;;;;;;;8.53;7.67;;;;;;;30.66;42.28;98849.00;6998950;28;20692;-81
2023/09/09 07:30:32;;;;;;;8.80;8.00;;;;;;;30.92;42.07;98849.66;6999303;28;20248;-85
2023/09/09 07:33:54;;;;;;;8.37;7.63;;;;;;;30.29;42.14;98727.31;6999873;28;20300;-85
2023/09/09 07:37:16;;;;;;;9.37;8.33;;;;;;;31.40;40.36;98844.44;6998319;28;20321;-86
2023/09/09 07:40:39;;;;;;;10.00;7.83;;;;;;;31.04;42.23;98842.22;6999085;28;20241;-84
2023/09/09 07:44:00;;;;;;;9.67;8.03;;;;;;;31.17;42.32;98851.47;6999287;28;20296;-85
2023/09/09 07:47:22;;;;;;;8.77;7.20;;;;;;;31.46;41.16;98843.09;6998802;28;20289;-84
2023/09/09 07:50:50;;;;;;;8.50;7.60;;;;;;;31.49;40.66;98848.00;6998817;28;20237;-84
2023/09/09 07:54:11;;;;;;;8.03;7.40;;;;;;;31.74;40.52;98849.78;6972714;28;20195;-84
2023/09/09 07:57:35;;;;;;;10.17;7.23;;;;;;;32.02;40.09;98845.25;6970409;28;20220;-86
2023/09/09 08:01:03;;;;;;;7.97;7.30;;;;;;;32.09;40.46;98851.91;6979099;28;20211;-84
2023/09/09 08:04:25;;;;;;;8.03;6.83;;;;;;;32.24;39.84;98850.41;6983134;28;20190;-84
2023/09/09 08:07:46;;;;;;;7.77;7.00;;;;;;;32.70;38.61;98844.44;6982897;28;20711;-85
2023/09/09 08:11:08;;;;;;;8.00;7.20;;;;;;;32.64;38.61;98851.44;6999638;28;20320;-85
2023/09/09 08:14:31;;;;;;;8.37;7.60;;;;;;;32.33;39.11;98853.94;6998876;28;20315;-85
2023/09/09 08:17:52;;;;;;;9.10;7.23;;;;;;;30.70;42.86;98836.00;6998889;28;20358;-85
2023/09/09 08:21:14;;;;;;;8.23;7.47;;;;;;;31.61;40.81;98862.00;6995750;28;20294;-85
2023/09/09 08:24:35;;;;;;;8.60;7.57;;;;;;;31.82;41.26;98863.63;7003631;28;20302;-84
2023/09/09 08:27:59;;;;;;;9.23;7.50;;;;;;;31.34;41.03;98859.72;6999004;28;20806;-84
2023/09/09 08:31:22;;;;;;;8.13;7.40;;;;;;;31.94;40.68;98866.47;6996851;28;20271;-82
2023/09/09 08:34:43;;;;;;;8.30;7.50;;;;;;;31.01;41.93;98865.16;6986325;28;20697;-83
2023/09/09 08:38:05;;;;;;;8.47;7.57;;;;;;;31.47;41.68;98864.22;6995910;28;20286;-83
2023/09/09 08:41:38;;;;;;;10.00;7.43;;;;;;;31.52;41.68;98861.22;6999301;28;20227;-84
2023/09/09 08:45:09;;;;;;;8.33;7.50;;;;;;;32.47;40.39;98872.00;6998636;28;20328;-83
2023/09/09 08:48:34;;;;;;;8.83;7.90;;;;;;;32.53;39.51;98870.63;6997748;28;20646;-85
2023/09/09 08:52:03;;;;;;;8.43;7.40;;;;;;;33.08;37.85;98859.72;6997600;28;20274;-84
2023/09/09 08:55:26;;;;;;;8.43;7.43;;;;;;;32.97;38.02;98871.72;6997418;28;20246;-84
2023/09/09 08:58:47;;;;;;;9.77;7.03;;;;;;;33.38;37.31;98865.91;6996578;28;20208;-85
2023/09/09 09:02:10;;;;;;;9.80;7.70;;;;;;;32.58;37.48;98834.09;6996481;28;20294;-85
2023/09/09 09:05:35;;;;;;;8.67;7.83;;;;;;;32.63;38.12;98875.75;6996573;28;20351;-85
2023/09/09 09:08:56;;;;;;;8.20;7.50;;;;;;;32.60;37.90;98868.06;6984082;28;20201;-84
2023/09/09 09:12:18;;;;;;;8.57;7.87;;;;;;;33.19;37.61;98858.09;6996281;28;20274;-85
2023/09/09 09:15:41;;;;;;;9.20;7.57;;;;;;;33.01;37.85;98867.09;6996149;28;20271;-85
2023/09/09 09:19:03;;;;;;;8.00;7.20;;;;;;;32.81;37.47;98868.00;7002143;28;20763;-85
2023/09/09 09:22:26;;;;;;;9.77;7.17;;;;;;;33.69;36.62;98864.06;7011970;28;20670;-85
2023/09/09 09:25:50;;;;;;;7.70;6.93;;;;;;;33.46;36.35;98871.34;7021275;28;20256;-85
2023/09/09 09:29:12;;;;;;;7.60;6.90;;;;;;;34.34;34.60;98782.41;6997650;28;20637;-86
2023/09/09 09:32:41;;;;;;;7.40;6.80;;;;;;;34.95;33.67;98864.81;6998353;28;20320;-85
2023/09/09 09:36:02;;;;;;;8.40;7.70;;;;;;;33.90;35.64;98850.72;6995489;28;20249;-85
2023/09/09 09:39:34;;;;;;;8.07;7.27;;;;;;;34.49;34.56;98854.38;6997557;28;20288;-85
2023/09/09 09:42:56;;;;;;;7.87;7.07;;;;;;;34.27;35.81;98852.22;6998984;28;20190;-84
2023/09/09 09:46:19;;;;;;;7.70;6.90;;;;;;;34.30;35.49;98851.47;7001107;28;20228;-84
2023/09/09 09:49:42;;;;;;;8.83;7.07;;;;;;;34.82;34.95;98837.25;6997925;28;20241;-84
2023/09/09 09:53:04;;;;;;;9.37;7.23;;;;;;;34.55;35.22;98840.94;6996781;28;20222;-85
2023/09/09 09:56:27;;;;;;;7.67;6.97;;;;;;;34.48;34.47;98855.56;6996955;28;20282;-84
2023/09/09 09:59:49;;;;;;;7.97;7.20;;;;;;;33.44;36.22;98842.91;7017025;28;20206;-84
2023/09/09 10:03:13;;;;;;;9.47;7.40;;;;;;;34.69;34.25;98855.28;7018973;28;20577;-84
2023/09/09 10:06:36;;;;;;;7.43;6.57;;;;;;;35.10;33.69;98851.94;7016378;28;20279;-84
2023/09/09 10:10:01;;;;;;;7.07;6.47;;;;;;;35.43;33.43;98835.53;7018097;28;20584;-84
2023/09/09 10:13:30;;;;;;;8.67;6.77;;;;;;;35.62;32.99;98839.16;7034556;28;20230;-84
2023/09/09 10:16:52;;;;;;;7.77;7.03;;;;;;;35.80;33.07;98829.16;7008832;28;20228;-79
2023/09/09 10:20:14;;;;;;;7.73;6.93;;;;;;;35.13;32.88;98807.16;7015639;28;20292;-79
2023/09/09 10:23:37;;;;;;;7.10;6.50;;;;;;;35.48;33.04;98844.47;7033277;28;20247;-81
2023/09/09 10:26:59;;;;;;;7.40;6.70;;;;;;;35.49;32.24;98836.88;7015303;28;20222;-84
2023/09/09 10:30:22;;;;;;;7.40;6.70;;;;;;;35.40;32.47;98839.88;7012691;28;20234;-84
2023/09/09 10:33:48;;;;;;;10.20;6.50;;;;;;;35.74;31.81;98827.84;7016561;28;20271;-82
2023/09/09 10:37:10;;;;;;;6.53;5.93;;;;;;;34.85;32.00;98828.91;6991044;28;20218;-85
2023/09/09 10:40:32;;;;;;;7.17;6.57;;;;;;;34.74;34.20;98825.03;7007709;28;20210;-86
2023/09/09 10:43:53;;;;;;;7.70;7.00;;;;;;;34.11;34.47;98833.69;6987125;28;20206;-85
2023/09/09 10:47:16;;;;;;;8.57;6.00;;;;;;;35.39;32.03;98815.00;7005467;28;20237;-85
2023/09/09 10:50:40;;;;;;;6.57;5.87;;;;;;;36.25;30.54;98823.66;7002399;28;20201;-84
2023/09/09 10:54:08;;;;;;;7.10;6.40;;;;;;;36.32;30.06;98822.97;7021311;28;20212;-84
2023/09/09 10:57:34;;;;;;;5.97;5.43;;;;;;;35.97;30.87;98809.03;7029144;28;20219;-83
2023/09/09 11:00:55;;;;;;;7.77;6.60;;;;;;;36.01;30.95;98820.34;7016839;28;20216;-88
2023/09/09 11:04:28;;;;;;;7.13;6.37;;;;;;;34.79;32.68;98830.38;6996189;28;20241;-85
2023/09/09 11:07:50;;;;;;;6.50;5.90;;;;;;;34.99;32.14;98822.84;7016200;28;20240;-81
2023/09/09 11:11:14;;;;;;;8.30;6.00;;;;;;;34.46;32.16;98806.69;7024281;28;20729;-83
2023/09/09 11:14:35;;;;;;;8.37;5.50;;;;;;;33.58;33.98;98828.53;6977581;28;20229;-81
2023/09/09 11:17:59;;;;;;;8.37;5.97;;;;;;;34.91;31.77;98815.47;7016170;28;20259;-82
2023/09/09 11:21:23;;;;;;;6.97;5.13;;;;;;;34.69;32.94;98824.47;7008517;28;20206;-82
2023/09/09 11:24:44;;;;;;;7.53;5.20;;;;;;;34.76;31.95;98828.31;7003548;28;20222;-82
2023/09/09 11:28:06;;;;;;;8.07;5.30;;;;;;;36.09;29.95;98808.06;7003725;28;20281;-81
2023/09/09 11:31:30;;;;;;;6.17;5.30;;;;;;;35.47;30.41;98819.56;7030052;28;20715;-82
2023/09/09 11:34:53;;;;;;;8.97;5.30;;;;;;;35.34;31.00;98818.91;7032522;28;20301;-82
2023/09/09 11:38:16;;;;;;;6.53;4.70;;;;;;;35.88;30.17;98819.69;7031924;28;20669;-82
2023/09/09 11:41:38;;;;;;;6.63;5.27;;;;;;;35.67;30.55;98818.41;7032105;28;20285;-82
2023/09/09 11:44:59;;;;;;;7.67;5.60;;;;;;;34.33;31.83;98817.19;7033716;28;20264;-80
2023/09/09 11:48:22;;;;;;;6.47;5.27;;;;;;;34.02;32.34;98819.06;7022553;28;20200;-84
2023/09/09 11:51:44;;;;;;;5.50;4.87;;;;;;;35.90;30.29;98805.28;7001850;28;20255;-84
2023/09/09 11:55:08;;;;;;;9.77;5.80;;;;;;;35.95;30.17;98760.88;7002981;28;20717;-84
2023/09/09 11:58:39;;;;;;;7.23;5.33;;;;;;;35.36;30.90;98791.31;7003051;28;20355;-84
2023/09/09 12:02:00;;;;;;;13.23;5.53;;;;;;;35.00;32.24;98804.84;7017261;28;20196;-84
2023/09/09 12:05:22;;;;;;;7.37;5.53;;;;;;;34.72;32.60;98796.53;7015640;28;20304;-85
2023/09/09 12:08:44;;;;;;;6.43;5.43;;;;;;;36.17;29.67;98788.19;7015821;28;20357;-84
2023/09/09 12:12:07;;;;;;;8.77;5.40;;;;;;;35.76;30.29;98803.00;7004274;28;20222;-84
2023/09/09 12:15:29;;;;;;;7.97;5.00;;;;;;;36.01;28.98;98784.66;7006475;28;20230;-85
2023/09/09 12:18:53;;;;;;;12.13;5.30;;;;;;;35.39;30.04;98793.38;7003621;28;20233;-84
2023/09/09 12:22:28;;;;;;;10.53;4.60;;;;;;;35.91;29.49;98793.66;7003329;28;20343;-85
2023/09/09 12:25:49;;;;;;;11.27;4.87;;;;;;;36.08;29.41;98789.59;7001233;28;20317;-85
2023/09/09 12:29:12;;;;;;;11.00;4.60;;;;;;;35.56;29.13;98794.94;7003027;28;20244;-84
2023/09/09 12:32:34;;;;;;;13.07;4.90;;;;;;;35.83;29.07;98805.16;7010929;28;20240;-84
2023/09/09 12:35:55;;;;;;;7.90;4.33;;;;;;;35.69;28.98;98791.63;7036766;28;20755;-83
2023/09/09 12:39:23;;;;;;;8.97;5.03;;;;;;;36.71;27.13;98785.13;7026342;28;20300;-84
2023/09/09 12:42:46;;;;;;;8.93;5.20;;;;;;;37.04;28.35;98779.63;7027290;28;20201;-86
2023/09/09 12:46:12;;;;;;;15.83;4.37;;;;;;;35.97;27.61;98769.72;7028250;28;20317;-85
2023/09/09 12:49:34;;;;;;;8.30;4.77;;;;;;;35.93;28.42;98780.09;7028993;28;20666;-85
2023/09/09 12:52:59;;;;;;;9.97;4.70;;;;;;;35.91;28.62;98790.06;7029336;28;20236;-85
2023/09/09 12:56:20;;;;;;;8.73;4.77;;;;;;;36.10;28.54;98790.84;7028648;28;20630;-84
2023/09/09 12:59:42;;;;;;;12.03;4.50;;;;;;;35.56;28.79;98787.31;7029037;28;20733;-84
2023/09/09 13:03:05;;;;;;;14.23;4.73;;;;;;;35.24;28.98;98763.41;7029887;28;20295;-86
2023/09/09 13:06:26;;;;;;;14.27;4.70;;;;;;;35.33;27.75;98741.56;6973130;28;20218;-84
2023/09/09 13:09:48;;;;;;;10.63;4.50;;;;;;;36.02;28.42;98800.31;6975515;28;20553;-84
2023/09/09 13:13:10;;;;;;;11.37;4.23;;;;;;;35.65;28.90;98782.31;6974924;28;20297;-84
2023/09/09 13:16:31;;;;;;;10.37;4.40;;;;;;;36.02;28.40;98766.63;6986023;28;20233;-84
2023/09/09 13:19:54;;;;;;;10.30;4.73;;;;;;;35.35;28.70;98780.44;7001801;28;20291;-84
2023/09/09 13:23:16;;;;;;;9.20;4.70;;;;;;;35.62;28.54;98782.22;7001758;28;20342;-84
2023/09/09 13:26:38;;;;;;;12.60;4.73;;;;;;;35.57;28.66;98772.13;7000679;28;20225;-84
2023/09/09 13:30:00;;;;;;;11.87;4.63;;;;;;;35.33;28.04;98707.09;6993766;28;20296;-84
2023/09/09 13:33:22;;;;;;;9.97;4.43;;;;;;;35.33;28.38;98774.41;7002311;28;20215;-84
2023/09/09 13:36:45;;;;;;;8.67;4.00;;;;;;;35.71;27.70;98777.22;7001122;28;20303;-84
2023/09/09 13:40:08;;;;;;;9.17;4.33;;;;;;;35.94;26.49;98742.41;7000623;28;20209;-84
2023/09/09 13:43:29;;;;;;;9.17;4.07;;;;;;;34.96;28.46;98745.91;7002175;28;20213;-84
2023/09/09 13:46:51;;;;;;;10.23;4.80;;;;;;;35.01;29.64;98764.44;7001797;28;20765;-84
2023/09/09 13:50:12;;;;;;;11.80;3.93;;;;;;;35.08;28.45;98776.63;7006220;28;20722;-84
2023/09/09 13:53:35;;;;;;;8.30;4.13;;;;;;;35.55;27.06;98743.63;7006257;28;20258;-84
2023/09/09 13:56:58;;;;;;;10.67;4.43;;;;;;;35.93;27.87;98756.81;7005285;28;20314;-84
2023/09/09 14:00:20;;;;;;;7.30;4.63;;;;;;;35.46;29.09;98767.47;7006692;28;20206;-84
2023/09/09 14:03:42;;;;;;;9.87;4.53;;;;;;;35.21;29.53;98757.69;7007154;28;20233;-85
2023/09/09 14:07:03;;;;;;;8.10;4.40;;;;;;;35.34;29.33;98757.22;7006248;28;20268;-84
2023/09/09 14:10:26;;;;;;;10.87;4.93;;;;;;;34.99;29.37;98747.16;7006846;28;20288;-85
2023/09/09 14:13:50;;;;;;;8.53;4.43;;;;;;;35.51;29.44;98753.97;6999219;28;20253;-85
2023/09/09 14:17:11;;;;;;;6.33;4.10;;;;;;;34.87;29.86;98741.69;7005641;28;20310;-84
2023/09/09 14:20:33;;;;;;;7.17;4.40;;;;;;;35.33;29.13;98755.59;7006387;28;20269;-84
2023/09/09 14:23:56;;;;;;;11.83;4.40;;;;;;;35.15;29.62;98759.97;7006005;28;20235;-84
2023/09/09 14:27:19;;;;;;;11.67;5.10;;;;;;;34.80;29.32;98739.56;7004726;28;20229;-83
2023/09/09 14:30:44;;;;;;;9.53;4.13;;;;;;;35.41;28.55;98745.31;7004009;28;20293;-83
2023/09/09 14:34:06;;;;;;;6.40;4.60;;;;;;;34.95;29.88;98723.88;7004070;28;20233;-83
2023/09/09 14:37:28;;;;;;;7.67;4.27;;;;;;;34.92;29.17;98735.81;7004618;28;20328;-83
2023/09/09 14:40:49;;;;;;;8.47;4.53;;;;;;;35.50;29.66;98738.28;7004778;28;20214;-83
2023/09/09 14:44:12;;;;;;;12.70;4.80;;;;;;;35.57;29.25;98737.63;7004681;28;20676;-83
2023/09/09 14:47:34;;;;;;;6.80;4.73;;;;;;;35.21;29.37;98743.66;7003502;28;20221;-83
2023/09/09 14:50:55;;;;;;;9.00;5.10;;;;;;;34.41;30.75;98703.34;7003822;28;20206;-83
2023/09/09 14:54:17;;;;;;;5.23;4.70;;;;;;;35.00;30.35;98743.19;7004500;28;20225;-82
2023/09/09 14:57:38;;;;;;;8.83;4.60;;;;;;;34.74;30.52;98712.97;7015607;28;20246;-83
2023/09/09 15:01:01;;;;;;;9.90;4.90;;;;;;;34.89;30.33;98744.97;7003099;28;20688;-83
2023/09/09 15:04:23;;;;;;;7.73;4.80;;;;;;;35.52;30.11;98740.75;7011084;28;20567;-83
2023/09/09 15:07:44;;;;;;;6.60;4.50;;;;;;;35.03;30.48;98748.06;6995672;28;20203;-83
2023/09/09 15:11:06;;;;;;;6.43;4.63;;;;;;;34.47;31.00;98730.72;6996449;28;20245;-83
2023/09/09 15:14:30;;;;;;;9.03;4.73;;;;;;;34.99;30.84;98753.59;6976550;28;20287;-83
2023/09/09 15:17:52;;;;;;;7.27;5.27;;;;;;;34.95;30.63;98746.28;6974922;28;20420;-83
2023/09/09 15:21:14;;;;;;;7.20;5.00;;;;;;;35.25;30.42;98736.19;6976323;28;20352;-83
2023/09/09 15:24:35;;;;;;;6.63;5.30;;;;;;;35.10;30.93;98745.41;6975791;28;20290;-83
2023/09/09 15:27:57;;;;;;;5.63;5.00;;;;;;;34.67;31.67;98737.19;6975988;28;20665;-83
2023/09/09 15:31:18;;;;;;;8.73;4.97;;;;;;;35.21;30.84;98749.28;6976125;28;20199;-83
2023/09/09 15:34:41;;;;;;;6.47;4.90;;;;;;;35.06;31.77;98739.75;6975332;28;20231;-83
2023/09/09 15:38:03;;;;;;;7.17;5.30;;;;;;;34.94;31.29;98747.44;6974875;28;20256;-83
2023/09/09 15:41:25;;;;;;;6.87;5.00;;;;;;;35.35;30.41;98732.78;6975827;28;20267;-83
2023/09/09 15:44:48;;;;;;;6.20;5.03;;;;;;;35.07;31.03;98726.53;6975291;28;20233;-83